Time;durP1;ratioP1;P1;durP2;ratioP2;P2;SDS_P1;SDS_P2;PMS_P1;PMS_P2;Temp;Humidity;BMP_temperature;BMP_pressure;BME280_temperature;BME280_humidity;BME280_pressure;Samples;Min_cycle;Max_cycle;Signal;HPM_P1;HPM_P2
2024/03/02 00:00:37;;;;;;;27.20;15.75;;;8.80;99.90;;;;;;5111060;28;20069;-64
2024/03/02 00:03:03;;;;;;;28.90;16.73;;;8.70;99.90;;;;;;5112657;28;20012;-64
2024/03/02 00:05:28;;;;;;;27.13;16.90;;;8.70;99.90;;;;;;5112032;28;20024;-64
2024/03/02 00:07:58;;;;;;;30.85;17.02;;;8.70;99.90;;;;;;5111808;28;20529;-64
2024/03/02 00:10:39;;;;;;;32.83;16.35;;;8.70;99.90;;;;;;5112730;28;20014;-64
2024/03/02 00:13:09;;;;;;;31.77;17.90;;;8.70;99.90;;;;;;5112175;28;20023;-64
2024/03/02 00:15:47;;;;;;;29.50;17.48;;;8.70;99.90;;;;;;5111791;28;20055;-64
2024/03/02 00:18:16;;;;;;;27.83;15.48;;;8.70;99.90;;;;;;5111970;28;20011;-64
2024/03/02 00:20:41;;;;;;;25.38;15.30;;;8.70;99.90;;;;;;5110535;28;20480;-64
2024/03/02 00:23:10;;;;;;;34.80;18.13;;;8.70;99.90;;;;;;5111870;28;20019;-64
2024/03/02 00:25:41;;;;;;;29.33;16.45;;;8.70;99.90;;;;;;5111851;28;20016;-64
2024/03/02 00:28:20;;;;;;;29.33;15.82;;;8.70;99.90;;;;;;5111637;28;20099;-65
2024/03/02 00:31:12;;;;;;;27.05;16.02;;;8.70;99.90;;;;;;5111777;28;20024;-65
2024/03/02 00:33:46;;;;;;;27.52;16.55;;;8.60;99.90;;;;;;5110255;28;20019;-65
2024/03/02 00:36:16;;;;;;;28.10;16.85;;;8.60;99.90;;;;;;5111045;28;20043;-65
2024/03/02 00:38:47;;;;;;;29.73;16.38;;;8.60;99.90;;;;;;5111487;27;20026;-65
2024/03/02 00:41:29;;;;;;;30.90;18.75;;;8.60;99.90;;;;;;5111315;28;20016;-64
2024/03/02 00:44:06;;;;;;;31.60;17.27;;;8.70;99.90;;;;;;5110908;28;20031;-64
2024/03/02 00:46:36;;;;;;;31.85;17.95;;;8.70;99.90;;;;;;5109667;28;20034;-64
2024/03/02 00:49:03;;;;;;;33.13;18.98;;;8.70;99.90;;;;;;5111315;28;20028;-65
2024/03/02 00:51:32;;;;;;;32.22;18.20;;;8.70;99.90;;;;;;5111333;28;20042;-64
2024/03/02 00:54:03;;;;;;;31.45;17.88;;;8.70;99.90;;;;;;5111442;28;20096;-63
2024/03/02 00:56:30;;;;;;;32.17;18.55;;;8.70;99.90;;;;;;5111347;28;20020;-63
2024/03/02 00:58:55;;;;;;;34.90;19.33;;;8.60;99.90;;;;;;5111569;28;20023;-63
2024/03/02 01:01:22;;;;;;;31.95;17.55;;;8.60;99.90;;;;;;5111333;28;20016;-63
2024/03/02 01:03:48;;;;;;;36.25;20.67;;;8.70;99.90;;;;;;5111121;28;20050;-63
2024/03/02 01:06:15;;;;;;;35.65;18.98;;;8.60;99.90;;;;;;5110858;28;20426;-64
2024/03/02 01:08:40;;;;;;;32.60;18.80;;;8.60;99.90;;;;;;5111009;28;20026;-65
2024/03/02 01:11:06;;;;;;;34.55;18.52;;;8.50;99.90;;;;;;5111252;28;20476;-65
2024/03/02 01:13:31;;;;;;;27.02;16.23;;;8.50;99.90;;;;;;5111136;28;20027;-64
2024/03/02 01:15:58;;;;;;;22.63;14.75;;;8.50;99.90;;;;;;5110441;28;20493;-64
2024/03/02 01:18:24;;;;;;;31.35;18.27;;;8.50;99.90;;;;;;5111173;28;20008;-65
2024/03/02 01:20:55;;;;;;;31.45;16.92;;;8.40;99.90;;;;;;5111315;28;20031;-64
2024/03/02 01:23:20;;;;;;;30.17;16.58;;;8.40;99.90;;;;;;5111034;28;20012;-64
2024/03/02 01:25:49;;;;;;;31.88;18.42;;;8.40;99.90;;;;;;5110604;28;20311;-65
2024/03/02 01:28:15;;;;;;;34.60;19.67;;;8.30;99.90;;;;;;5109310;28;20027;-64
2024/03/02 01:30:41;;;;;;;31.63;18.60;;;8.30;99.90;;;;;;5110918;28;20027;-63
2024/03/02 01:33:07;;;;;;;33.97;19.20;;;8.20;99.90;;;;;;5113161;28;20020;-63
2024/03/02 01:35:33;;;;;;;34.90;17.98;;;8.10;99.90;;;;;;5110885;28;20028;-63
2024/03/02 01:37:58;;;;;;;34.05;18.70;;;8.20;99.90;;;;;;5110519;28;20163;-63
2024/03/02 01:40:26;;;;;;;34.83;21.33;;;8.10;99.90;;;;;;5104260;28;20528;-63
2024/03/02 01:42:53;;;;;;;37.40;20.02;;;8.10;99.90;;;;;;5108400;28;20095;-64
2024/03/02 01:45:19;;;;;;;37.70;20.48;;;8.10;99.90;;;;;;5105135;28;20488;-63
2024/03/02 01:47:44;;;;;;;42.92;22.13;;;8.10;99.90;;;;;;5111036;28;20089;-63
2024/03/02 01:50:11;;;;;;;39.08;21.33;;;8.10;99.90;;;;;;5111478;28;20027;-63
2024/03/02 01:52:37;;;;;;;34.55;19.33;;;8.10;99.90;;;;;;5111121;28;20035;-63
2024/03/02 01:55:03;;;;;;;35.65;21.52;;;8.10;99.90;;;;;;5112562;28;20098;-64
2024/03/02 01:57:29;;;;;;;36.60;20.85;;;8.10;99.90;;;;;;5111652;28;20102;-64
2024/03/02 01:59:55;;;;;;;35.22;20.75;;;8.10;99.90;;;;;;5111141;28;20389;-64
2024/03/02 02:02:21;;;;;;;38.20;21.58;;;8.10;99.90;;;;;;5111443;28;20016;-64
2024/03/02 02:04:47;;;;;;;37.33;20.20;;;8.00;99.90;;;;;;5111606;27;20028;-64
2024/03/02 02:07:14;;;;;;;37.92;20.55;;;8.00;99.90;;;;;;5111859;28;20042;-64
2024/03/02 02:09:43;;;;;;;36.20;21.13;;;8.00;99.90;;;;;;5111913;28;20035;-64
2024/03/02 02:12:09;;;;;;;34.38;19.23;;;8.00;99.90;;;;;;5112083;28;20065;-64
2024/03/02 02:14:35;;;;;;;41.45;22.23;;;8.00;99.90;;;;;;5111866;28;20035;-64
2024/03/02 02:17:00;;;;;;;39.75;21.73;;;8.00;99.90;;;;;;5103056;28;20012;-64
2024/03/02 02:19:26;;;;;;;39.90;21.15;;;8.00;99.90;;;;;;5111461;28;20413;-64
2024/03/02 02:21:51;;;;;;;40.67;22.65;;;8.00;99.90;;;;;;5109189;28;20020;-64
2024/03/02 02:24:17;;;;;;;40.60;22.02;;;8.00;99.90;;;;;;5110275;28;20020;-64
2024/03/02 02:26:43;;;;;;;35.63;20.33;;;8.00;99.90;;;;;;5108035;28;20034;-64
2024/03/02 02:29:08;;;;;;;42.33;22.02;;;8.00;99.90;;;;;;5109809;28;20076;-64
2024/03/02 02:31:41;;;;;;;44.30;23.88;;;8.00;99.90;;;;;;5109283;28;20160;-63
2024/03/02 02:34:07;;;;;;;38.72;21.75;;;8.00;99.90;;;;;;5104558;28;20023;-63
2024/03/02 02:36:34;;;;;;;38.40;21.35;;;8.00;99.90;;;;;;5112044;28;20084;-63
2024/03/02 02:39:03;;;;;;;36.53;20.60;;;8.00;99.90;;;;;;5110623;28;20023;-63
2024/03/02 02:41:29;;;;;;;43.67;23.05;;;8.00;99.90;;;;;;5110356;28;20307;-63
2024/03/02 02:43:55;;;;;;;41.38;23.27;;;8.00;99.90;;;;;;5111470;28;20384;-63
2024/03/02 02:46:20;;;;;;;39.47;21.83;;;8.00;99.90;;;;;;5111538;28;20031;-63
2024/03/02 02:48:46;;;;;;;37.53;21.27;;;8.00;99.90;;;;;;5110897;28;20057;-64
2024/03/02 02:51:12;;;;;;;42.22;22.75;;;8.00;99.90;;;;;;5108718;28;20660;-64
2024/03/02 02:53:40;;;;;;;32.17;19.45;;;8.00;99.90;;;;;;5109029;28;20469;-64
2024/03/02 02:56:06;;;;;;;35.10;20.08;;;7.90;99.90;;;;;;5107260;28;20388;-64
2024/03/02 02:58:32;;;;;;;32.00;19.42;;;7.90;99.90;;;;;;5109231;28;20027;-64
2024/03/02 03:00:57;;;;;;;37.60;21.50;;;7.90;99.90;;;;;;5107765;28;20522;-64
2024/03/02 03:03:23;;;;;;;40.58;24.52;;;8.00;99.90;;;;;;5108931;28;20024;-64
2024/03/02 03:05:49;;;;;;;43.05;22.80;;;8.00;99.90;;;;;;5108628;28;20055;-64
2024/03/02 03:08:15;;;;;;;44.45;23.50;;;7.90;99.90;;;;;;5107866;28;20020;-64
2024/03/02 03:10:41;;;;;;;43.05;23.63;;;7.90;99.90;;;;;;5108944;28;20020;-64
2024/03/02 03:13:08;;;;;;;41.83;23.63;;;7.90;99.90;;;;;;5109242;28;20342;-64
2024/03/02 03:15:36;;;;;;;45.85;26.35;;;7.90;99.90;;;;;;5108933;28;20023;-64
2024/03/02 03:18:03;;;;;;;42.05;24.08;;;7.90;99.90;;;;;;5108883;28;20023;-64
2024/03/02 03:20:29;;;;;;;38.78;20.55;;;7.90;99.90;;;;;;5108946;28;20034;-64
2024/03/02 03:22:55;;;;;;;42.20;23.75;;;7.90;99.90;;;;;;5109118;28;20019;-64
2024/03/02 03:25:21;;;;;;;39.95;21.55;;;7.90;99.90;;;;;;5109010;28;20016;-64
2024/03/02 03:27:46;;;;;;;40.60;23.50;;;7.90;99.90;;;;;;5108562;28;20164;-64
2024/03/02 03:30:12;;;;;;;39.55;21.17;;;7.90;99.90;;;;;;5109128;28;20019;-64
2024/03/02 03:32:38;;;;;;;39.55;22.75;;;7.90;99.90;;;;;;5109504;28;20042;-64
2024/03/02 03:35:04;;;;;;;37.78;21.98;;;7.90;99.90;;;;;;5109008;28;20043;-64
2024/03/02 03:37:32;;;;;;;39.50;21.85;;;7.90;99.90;;;;;;5108356;28;20100;-64
2024/03/02 03:39:59;;;;;;;40.35;21.25;;;7.90;99.90;;;;;;5109069;28;20077;-64
2024/03/02 03:42:24;;;;;;;42.83;21.63;;;7.90;99.90;;;;;;5108953;28;20069;-64
2024/03/02 03:44:50;;;;;;;34.63;19.05;;;7.80;99.90;;;;;;5108888;28;20396;-64
2024/03/02 03:47:15;;;;;;;38.17;21.77;;;7.80;99.90;;;;;;5108493;28;20028;-64
2024/03/02 03:49:41;;;;;;;39.28;20.85;;;7.80;99.90;;;;;;5109040;28;20031;-63
2024/03/02 03:52:06;;;;;;;40.10;22.33;;;7.90;99.90;;;;;;5108695;28;20023;-63
2024/03/02 03:54:32;;;;;;;41.70;22.23;;;7.90;99.90;;;;;;5108860;28;20078;-63
2024/03/02 03:56:57;;;;;;;41.20;21.80;;;7.90;99.90;;;;;;5108204;28;20020;-63
2024/03/02 03:59:23;;;;;;;39.30;22.23;;;7.90;99.90;;;;;;5109679;28;20027;-63
2024/03/02 04:01:49;;;;;;;37.65;21.88;;;7.90;99.90;;;;;;5109111;28;20055;-63
2024/03/02 04:04:14;;;;;;;42.33;21.63;;;8.00;99.90;;;;;;5108509;28;20020;-63
2024/03/02 04:06:40;;;;;;;42.80;22.83;;;7.90;99.90;;;;;;5107968;28;20032;-64
2024/03/02 04:09:06;;;;;;;41.20;22.75;;;7.90;99.90;;;;;;5107043;28;20349;-64
2024/03/02 04:11:31;;;;;;;40.17;22.70;;;7.90;99.90;;;;;;5106825;28;20156;-64
2024/03/02 04:13:57;;;;;;;42.33;23.92;;;7.90;99.90;;;;;;5108076;28;20130;-64
2024/03/02 04:16:22;;;;;;;42.25;24.42;;;7.90;99.90;;;;;;5108283;28;20375;-64
2024/03/02 04:18:48;;;;;;;37.38;21.80;;;7.90;99.90;;;;;;5107059;28;20024;-64
2024/03/02 04:21:13;;;;;;;41.92;21.98;;;7.90;99.90;;;;;;5110301;28;20103;-64
2024/03/02 04:23:39;;;;;;;39.65;21.42;;;7.90;99.90;;;;;;5112060;27;20548;-65
2024/03/02 04:26:04;;;;;;;41.10;21.80;;;7.90;99.90;;;;;;5111417;28;20031;-64
2024/03/02 04:28:30;;;;;;;40.95;23.73;;;7.90;99.90;;;;;;5112079;28;20103;-64
2024/03/02 04:30:55;;;;;;;43.95;23.85;;;7.90;99.90;;;;;;5111596;28;20096;-64
2024/03/02 04:33:21;;;;;;;39.63;23.27;;;7.90;99.90;;;;;;5111676;28;20084;-64
2024/03/02 04:35:46;;;;;;;46.67;25.48;;;7.90;99.90;;;;;;5111212;28;20084;-64
2024/03/02 04:38:12;;;;;;;41.03;23.45;;;7.90;99.90;;;;;;5111577;28;20020;-64
2024/03/02 04:40:38;;;;;;;42.53;25.00;;;7.90;99.90;;;;;;5110237;28;20020;-64
2024/03/02 04:43:03;;;;;;;42.70;23.13;;;7.90;99.90;;;;;;5111379;28;20023;-65
2024/03/02 04:45:29;;;;;;;46.63;24.08;;;7.90;99.90;;;;;;5111582;28;20035;-64
2024/03/02 04:47:54;;;;;;;43.20;23.75;;;7.90;99.90;;;;;;5110954;28;20349;-65
2024/03/02 04:50:20;;;;;;;45.63;24.52;;;7.90;99.90;;;;;;5109936;28;20023;-64
2024/03/02 04:52:45;;;;;;;46.13;24.50;;;7.90;99.90;;;;;;5111735;28;20055;-64
2024/03/02 04:57:42;;;;;;;45.53;24.27;;;7.80;99.90;;;;;;5111500;28;20020;-64
2024/03/02 05:00:09;;;;;;;45.22;24.88;;;7.80;99.90;;;;;;5111578;28;20023;-65
2024/03/02 05:02:35;;;;;;;43.78;24.98;;;7.80;99.90;;;;;;5111136;28;20051;-64
2024/03/02 05:05:00;;;;;;;41.30;24.80;;;7.80;99.90;;;;;;5109601;28;20030;-65
2024/03/02 05:07:26;;;;;;;43.45;24.58;;;7.70;99.90;;;;;;5110699;28;20039;-65
2024/03/02 05:09:51;;;;;;;42.97;24.38;;;7.70;99.90;;;;;;5111203;28;20088;-65
2024/03/02 05:14:48;;;;;;;49.10;26.80;;;7.70;99.90;;;;;;5110551;28;20023;-65
2024/03/02 05:17:14;;;;;;;44.45;25.77;;;7.70;99.90;;;;;;5110830;28;20019;-65
2024/03/02 05:19:39;;;;;;;40.88;23.75;;;7.70;99.90;;;;;;5110838;28;20509;-65
2024/03/02 05:22:05;;;;;;;41.35;23.60;;;7.70;99.90;;;;;;5110694;28;20134;-64
2024/03/02 05:24:31;;;;;;;46.25;26.70;;;7.70;99.90;;;;;;5111143;28;20043;-65
2024/03/02 05:26:56;;;;;;;46.78;25.52;;;7.60;99.90;;;;;;5110418;28;20031;-65
2024/03/02 05:29:22;;;;;;;50.75;25.88;;;7.60;99.90;;;;;;5110592;28;20019;-65
2024/03/02 05:31:48;;;;;;;43.83;25.15;;;7.60;99.90;;;;;;5109965;28;20498;-65
2024/03/02 05:34:14;;;;;;;49.85;26.25;;;7.60;99.90;;;;;;5110383;28;20516;-67
2024/03/02 05:36:39;;;;;;;47.67;26.58;;;7.60;99.90;;;;;;5109116;28;20030;-67
2024/03/02 05:39:08;;;;;;;42.83;24.83;;;7.60;99.90;;;;;;5109416;28;20037;-67
2024/03/02 05:41:34;;;;;;;42.42;24.30;;;7.50;99.90;;;;;;5110485;28;20044;-67
2024/03/02 05:44:00;;;;;;;42.40;24.00;;;7.50;99.90;;;;;;5110395;28;20125;-67
2024/03/02 05:46:25;;;;;;;40.03;23.90;;;7.50;99.90;;;;;;5109963;28;20605;-67
2024/03/02 05:48:51;;;;;;;41.47;24.52;;;7.50;99.90;;;;;;5110199;28;20478;-67
2024/03/02 05:51:16;;;;;;;43.85;26.50;;;7.50;99.90;;;;;;5110058;28;20027;-66
2024/03/02 05:53:42;;;;;;;48.20;26.13;;;7.50;99.90;;;;;;5108666;28;20048;-67
2024/03/02 05:56:08;;;;;;;42.78;24.55;;;7.50;99.90;;;;;;5108169;28;20448;-66
2024/03/02 05:58:57;;;;;;;47.38;27.33;;;7.50;99.90;;;;;;5110048;28;20103;-67
2024/03/02 06:01:28;;;;;;;41.17;24.50;;;7.50;99.90;;;;;;5109851;28;20012;-67
2024/03/02 06:03:57;;;;;;;42.30;23.90;;;7.50;99.90;;;;;;5108724;28;20031;-67
2024/03/02 06:06:25;;;;;;;42.60;24.80;;;7.50;99.90;;;;;;5109753;28;20020;-66
2024/03/02 06:08:51;;;;;;;42.45;24.48;;;7.50;99.90;;;;;;5109518;28;20441;-67
2024/03/02 06:11:19;;;;;;;44.08;25.58;;;7.50;99.90;;;;;;5109422;28;20087;-67
2024/03/02 06:13:44;;;;;;;42.85;23.50;;;7.50;99.90;;;;;;5109684;28;20246;-66
2024/03/02 06:16:10;;;;;;;39.40;22.33;;;7.50;99.90;;;;;;5107768;28;20016;-66
2024/03/02 06:18:35;;;;;;;46.53;25.08;;;7.50;99.90;;;;;;5108149;28;20020;-67
2024/03/02 06:21:01;;;;;;;49.10;24.88;;;7.50;99.90;;;;;;5107736;28;20016;-66
2024/03/02 06:23:27;;;;;;;40.10;22.02;;;7.50;99.90;;;;;;5106554;28;20472;-66
2024/03/02 06:25:52;;;;;;;40.53;22.98;;;7.50;99.90;;;;;;5106055;28;20024;-67
2024/03/02 06:28:18;;;;;;;40.78;24.33;;;7.50;99.90;;;;;;5106151;28;20019;-67
2024/03/02 06:30:44;;;;;;;46.63;26.73;;;7.60;99.90;;;;;;5107731;28;20030;-67
2024/03/02 06:33:11;;;;;;;42.72;25.38;;;7.50;99.90;;;;;;5108560;28;20039;-66
2024/03/02 06:35:36;;;;;;;40.22;24.38;;;7.60;99.90;;;;;;5109377;28;20067;-67
2024/03/02 06:38:02;;;;;;;41.80;25.35;;;7.60;99.90;;;;;;5109102;28;20047;-67
2024/03/02 06:40:28;;;;;;;37.70;21.67;;;7.60;99.90;;;;;;5109180;27;20500;-66
2024/03/02 06:42:53;;;;;;;44.78;24.33;;;7.60;99.90;;;;;;5107285;28;20016;-66
2024/03/02 06:45:19;;;;;;;43.03;22.90;;;7.60;99.90;;;;;;5109026;28;20016;-67
2024/03/02 06:47:44;;;;;;;40.75;22.50;;;7.60;99.90;;;;;;5109081;28;20123;-67
2024/03/02 06:50:10;;;;;;;36.17;21.45;;;7.60;99.90;;;;;;5109852;28;20360;-67
2024/03/02 06:52:36;;;;;;;43.72;23.77;;;7.70;99.90;;;;;;5107940;28;20031;-67
2024/03/02 06:55:02;;;;;;;38.47;22.23;;;7.70;99.90;;;;;;5107733;28;20024;-67
2024/03/02 06:57:27;;;;;;;39.33;20.92;;;7.80;99.90;;;;;;5108992;28;20024;-66
2024/03/02 06:59:57;;;;;;;39.90;22.60;;;7.80;99.90;;;;;;5109438;28;20484;-66
2024/03/02 07:02:22;;;;;;;41.17;23.97;;;7.80;99.90;;;;;;5109059;28;20027;-67
2024/03/02 07:04:48;;;;;;;48.60;24.38;;;7.90;99.90;;;;;;5108802;28;20028;-67
2024/03/02 07:07:14;;;;;;;41.00;22.60;;;7.80;99.90;;;;;;5108554;28;20357;-67
2024/03/02 07:09:39;;;;;;;34.50;20.10;;;7.90;99.90;;;;;;5108635;28;20492;-67
2024/03/02 07:12:05;;;;;;;42.53;23.33;;;7.90;99.90;;;;;;5108495;28;20500;-67
2024/03/02 07:17:15;;;;;;;36.00;21.83;;;7.90;99.90;;;;;;5108392;28;20104;-67
2024/03/02 07:19:40;;;;;;;35.95;21.35;;;8.00;99.90;;;;;;5107419;28;20052;-67
2024/03/02 07:22:08;;;;;;;41.42;22.48;;;8.00;99.90;;;;;;5108689;28;20034;-67
2024/03/02 07:24:42;;;;;;;41.58;22.08;;;8.00;99.90;;;;;;5108844;28;20024;-66
2024/03/02 07:27:12;;;;;;;36.05;20.13;;;8.00;99.90;;;;;;5108977;28;20028;-66
2024/03/02 07:29:38;;;;;;;37.15;21.15;;;8.10;99.90;;;;;;5109263;28;20360;-66
2024/03/02 07:32:03;;;;;;;35.83;22.15;;;8.10;99.90;;;;;;5109036;28;20031;-67
2024/03/02 07:34:29;;;;;;;35.00;20.38;;;8.10;99.90;;;;;;5107570;28;20036;-66
2024/03/02 07:36:55;;;;;;;37.63;21.55;;;8.20;99.90;;;;;;5108591;28;20434;-66
2024/03/02 07:39:21;;;;;;;38.05;21.75;;;8.20;99.90;;;;;;5107407;28;20024;-66
2024/03/02 07:41:47;;;;;;;35.30;19.98;;;8.30;99.90;;;;;;5109017;28;20028;-67
2024/03/02 07:44:15;;;;;;;35.95;20.67;;;8.30;99.90;;;;;;5109023;28;20031;-67
2024/03/02 07:46:42;;;;;;;38.67;22.05;;;8.40;99.90;;;;;;5108443;28;20043;-67
2024/03/02 07:49:08;;;;;;;40.55;22.58;;;8.40;99.90;;;;;;5108827;28;20062;-66
2024/03/02 07:51:34;;;;;;;35.83;21.70;;;8.50;99.90;;;;;;5108525;28;20051;-67
2024/03/02 07:53:59;;;;;;;34.50;20.20;;;8.50;99.90;;;;;;5110338;28;20031;-67
2024/03/02 07:56:25;;;;;;;36.88;20.52;;;8.60;99.90;;;;;;5112540;28;20065;-67
2024/03/02 07:58:51;;;;;;;34.35;20.75;;;8.70;99.90;;;;;;5112742;28;20380;-67
2024/03/02 08:01:17;;;;;;;34.95;21.02;;;8.80;99.90;;;;;;5112391;28;20020;-67
2024/03/02 08:03:47;;;;;;;40.15;23.65;;;8.90;99.90;;;;;;5112756;28;20429;-67
2024/03/02 08:06:17;;;;;;;;;;;9.00;99.90;;;;;;5112473;28;20106;-67
2024/03/02 08:08:42;;;;;;;41.03;22.38;;;9.00;99.90;;;;;;5112571;28;19998;-67
2024/03/02 08:11:08;;;;;;;41.53;23.25;;;9.10;99.90;;;;;;5111104;28;20101;-67
2024/03/02 08:13:33;;;;;;;37.53;21.90;;;9.20;99.90;;;;;;5112618;28;20077;-67
2024/03/02 08:15:59;;;;;;;39.72;24.38;;;9.30;99.90;;;;;;5112381;28;20128;-67
2024/03/02 08:18:25;;;;;;;35.88;21.50;;;9.40;99.90;;;;;;5112174;28;20062;-67
2024/03/02 08:20:50;;;;;;;39.22;23.10;;;9.50;99.90;;;;;;5112071;28;20064;-67
2024/03/02 08:23:17;;;;;;;36.78;23.73;;;9.60;99.90;;;;;;5112080;28;20077;-67
2024/03/02 08:25:43;;;;;;;32.97;20.25;;;9.70;99.90;;;;;;5110562;28;20055;-67
2024/03/02 08:28:08;;;;;;;40.03;21.73;;;9.80;99.90;;;;;;5111815;28;20511;-67
2024/03/02 08:30:34;;;;;;;32.08;20.45;;;9.90;99.90;;;;;;5111835;28;20503;-67
2024/03/02 08:32:59;;;;;;;37.50;22.15;;;10.00;99.90;;;;;;5110603;28;20396;-67
2024/03/02 08:35:26;;;;;;;43.25;23.15;;;10.00;99.90;;;;;;5111390;28;20043;-67
2024/03/02 08:37:51;;;;;;;33.10;19.77;;;10.00;99.90;;;;;;5110951;28;20024;-67
2024/03/02 08:40:17;;;;;;;38.05;21.35;;;10.20;99.90;;;;;;5109702;28;20023;-68
2024/03/02 08:42:43;;;;;;;41.80;23.73;;;10.30;99.90;;;;;;5110138;28;20023;-67
2024/03/02 08:45:09;;;;;;;33.33;20.25;;;10.40;99.90;;;;;;5111703;28;20503;-67
2024/03/02 08:47:35;;;;;;;34.47;19.70;;;10.50;99.90;;;;;;5111146;28;20028;-68
2024/03/02 08:50:00;;;;;;;35.47;21.52;;;10.60;99.90;;;;;;5110362;28;20012;-67
2024/03/02 08:52:26;;;;;;;34.50;20.42;;;10.70;99.90;;;;;;5111639;28;20119;-67
2024/03/02 08:54:52;;;;;;;33.25;20.13;;;10.90;99.90;;;;;;5111847;28;20079;-67
2024/03/02 08:57:17;;;;;;;35.20;20.55;;;11.00;99.90;;;;;;5110966;28;20015;-67
2024/03/02 08:59:43;;;;;;;31.67;19.90;;;11.10;99.90;;;;;;5110222;28;20105;-67
2024/03/02 09:02:09;;;;;;;29.42;18.77;;;11.10;99.90;;;;;;5111526;28;20024;-67
2024/03/02 09:04:35;;;;;;;31.05;18.50;;;11.30;99.90;;;;;;5111600;28;20080;-67
2024/03/02 09:07:01;;;;;;;33.92;19.77;;;11.50;99.90;;;;;;5110413;28;20023;-67
2024/03/02 09:09:27;;;;;;;32.78;18.73;;;11.80;99.90;;;;;;5111510;28;20012;-67
2024/03/02 09:11:54;;;;;;;29.48;16.95;;;12.20;99.90;;;;;;5109953;28;20019;-68
2024/03/02 09:14:20;;;;;;;27.75;17.88;;;13.20;99.90;;;;;;5111158;28;20020;-68
2024/03/02 09:16:46;;;;;;;21.92;15.88;;;14.80;99.90;;;;;;5110553;28;20107;-68
2024/03/02 09:19:12;;;;;;;21.50;12.93;;;15.80;99.90;;;;;;5110064;28;20095;-68
2024/03/02 09:21:37;;;;;;;18.10;13.90;;;17.70;99.00;;;;;;5110264;28;20022;-68
2024/03/02 09:24:03;;;;;;;17.98;13.32;;;18.90;95.80;;;;;;5110883;28;20047;-68
2024/03/02 09:26:29;;;;;;;21.80;15.07;;;20.40;91.00;;;;;;5109660;28;20459;-69
2024/03/02 09:28:54;;;;;;;21.75;14.15;;;20.00;88.20;;;;;;5109177;28;20024;-68
2024/03/02 09:31:20;;;;;;;17.67;13.48;;;20.00;88.20;;;;;;5110780;28;20027;-69
2024/03/02 09:33:45;;;;;;;17.50;13.63;;;20.30;88.00;;;;;;5110680;28;20023;-68
2024/03/02 09:36:22;;;;;;;16.92;11.70;;;20.90;85.40;;;;;;5110367;28;20498;-69
2024/03/02 09:38:47;;;;;;;17.90;12.65;;;21.50;85.20;;;;;;5110898;28;20022;-68
2024/03/02 09:41:14;;;;;;;16.48;12.85;;;21.70;83.70;;;;;;5110184;28;20020;-70
2024/03/02 09:43:40;;;;;;;15.23;12.38;;;22.20;80.10;;;;;;5110565;28;20015;-68
2024/03/02 09:46:10;;;;;;;18.08;13.07;;;22.00;81.90;;;;;;5110632;28;20065;-68
2024/03/02 09:48:36;;;;;;;20.00;14.13;;;21.90;81.10;;;;;;5110454;28;20024;-68
2024/03/02 09:51:03;;;;;;;20.98;15.65;;;21.20;82.20;;;;;;5108567;28;20030;-68
2024/03/02 09:53:33;;;;;;;18.00;13.45;;;20.20;83.00;;;;;;5107253;28;20020;-68
2024/03/02 09:56:00;;;;;;;20.42;15.57;;;19.40;85.20;;;;;;5104382;28;20716;-68
2024/03/02 09:58:26;;;;;;;20.48;15.30;;;19.20;86.00;;;;;;5110314;27;20081;-69
2024/03/02 10:00:51;;;;;;;20.95;14.23;;;19.20;86.10;;;;;;5110155;28;20488;-69
2024/03/02 10:03:18;;;;;;;17.48;12.93;;;19.40;86.20;;;;;;5108633;28;20388;-69
2024/03/02 10:05:44;;;;;;;20.05;14.63;;;19.80;85.20;;;;;;5109872;28;20230;-69
2024/03/02 10:08:09;;;;;;;20.85;15.00;;;19.90;83.40;;;;;;5108956;28;20268;-70
2024/03/02 10:10:42;;;;;;;16.88;13.20;;;20.00;83.10;;;;;;5110408;28;20345;-69
2024/03/02 10:13:12;;;;;;;19.58;14.05;;;19.90;84.80;;;;;;5108892;28;20024;-69
2024/03/02 10:15:40;;;;;;;17.30;14.05;;;20.30;82.50;;;;;;5108193;28;20026;-70
2024/03/02 10:18:12;;;;;;;19.92;13.75;;;20.40;81.30;;;;;;5108970;28;20016;-69
2024/03/02 10:20:38;;;;;;;22.23;13.57;;;20.00;82.50;;;;;;5108556;28;20016;-70
2024/03/02 10:23:14;;;;;;;20.98;14.68;;;20.20;83.10;;;;;;5109671;28;20389;-70
2024/03/02 10:25:40;;;;;;;18.15;13.52;;;20.30;82.50;;;;;;5109538;28;20362;-69
2024/03/02 10:28:06;;;;;;;21.30;15.75;;;20.40;83.00;;;;;;5109557;27;20019;-70
2024/03/02 10:30:32;;;;;;;23.10;15.02;;;20.40;81.30;;;;;;5109667;28;20032;-70
2024/03/02 10:32:58;;;;;;;18.67;14.32;;;20.20;82.00;;;;;;5109403;28;20373;-69
2024/03/02 10:35:24;;;;;;;19.95;13.60;;;19.90;84.30;;;;;;5109444;28;20024;-69
2024/03/02 10:37:50;;;;;;;22.55;14.68;;;19.50;85.10;;;;;;5109123;28;20012;-69
2024/03/02 10:40:16;;;;;;;24.25;16.33;;;19.20;85.60;;;;;;5109259;28;20019;-69
2024/03/02 10:42:45;;;;;;;19.98;15.00;;;18.80;86.20;;;;;;5109555;28;20090;-69
2024/03/02 10:45:12;;;;;;;21.38;14.57;;;18.40;87.90;;;;;;5108973;28;20149;-69
2024/03/02 10:47:38;;;;;;;21.05;13.93;;;17.60;89.50;;;;;;5106876;28;20031;-69
2024/03/02 10:50:10;;;;;;;22.90;16.75;;;17.20;90.70;;;;;;5109383;28;20107;-69
2024/03/02 10:52:36;;;;;;;20.92;15.50;;;17.00;90.90;;;;;;5108129;28;20031;-69
2024/03/02 10:55:05;;;;;;;22.23;15.20;;;16.50;91.30;;;;;;5109028;28;20020;-69
2024/03/02 10:57:40;;;;;;;25.90;17.05;;;16.40;91.30;;;;;;5108692;28;20042;-69
2024/03/02 11:00:07;;;;;;;28.45;18.98;;;16.10;91.40;;;;;;5109269;28;20023;-69
2024/03/02 11:02:36;;;;;;;26.50;16.35;;;15.60;92.20;;;;;;5107625;28;20020;-69
2024/03/02 11:05:07;;;;;;;19.80;13.02;;;15.20;92.80;;;;;;5109066;28;20023;-69
2024/03/02 11:07:34;;;;;;;18.30;11.20;;;15.10;92.00;;;;;;5108528;28;20066;-69
2024/03/02 11:10:08;;;;;;;16.92;11.95;;;14.90;92.10;;;;;;5108107;28;20016;-69
2024/03/02 11:12:39;;;;;;;19.15;13.35;;;14.90;92.40;;;;;;5107780;28;20111;-69
2024/03/02 11:15:11;;;;;;;17.98;11.93;;;14.90;92.60;;;;;;5109032;28;20080;-69
2024/03/02 11:17:40;;;;;;;19.95;12.07;;;14.90;92.90;;;;;;5108475;28;20396;-69
2024/03/02 11:20:08;;;;;;;17.77;10.75;;;14.80;91.50;;;;;;5109281;28;20160;-69
2024/03/02 11:22:35;;;;;;;19.75;12.15;;;14.70;90.80;;;;;;5108816;28;20023;-68
2024/03/02 11:25:01;;;;;;;19.23;11.73;;;14.70;91.10;;;;;;5109085;28;20064;-69
2024/03/02 11:27:45;;;;;;;18.58;11.82;;;14.90;91.70;;;;;;5108427;28;20024;-69
2024/03/02 11:30:33;;;;;;;14.80;9.70;;;15.00;91.60;;;;;;5112554;28;20432;-69
2024/03/02 11:33:09;;;;;;;18.85;11.63;;;15.60;91.50;;;;;;5111485;28;20076;-69
2024/03/02 11:35:48;;;;;;;13.85;9.88;;;15.90;89.70;;;;;;5111819;28;20023;-69
2024/03/02 11:38:14;;;;;;;10.13;7.25;;;16.50;89.80;;;;;;5113297;28;20095;-69
2024/03/02 11:40:40;;;;;;;12.10;7.93;;;17.10;83.70;;;;;;5112961;28;20321;-69
2024/03/02 11:43:07;;;;;;;12.27;6.97;;;18.00;83.50;;;;;;5113066;28;20111;-69
2024/03/02 11:45:33;;;;;;;12.95;7.82;;;18.60;80.50;;;;;;5112821;28;20118;-69
2024/03/02 11:47:59;;;;;;;14.07;8.55;;;18.70;79.10;;;;;;5110661;28;20118;-70
2024/03/02 11:50:37;;;;;;;12.27;7.60;;;18.60;77.80;;;;;;5113004;28;20053;-69
2024/03/02 11:53:06;;;;;;;8.85;5.85;;;17.90;77.80;;;;;;5112654;28;20023;-70
2024/03/02 11:55:34;;;;;;;7.70;5.50;;;17.50;80.50;;;;;;5111302;28;20034;-68
2024/03/02 11:58:01;;;;;;;7.63;4.82;;;17.30;79.80;;;;;;5112421;28;20141;-68
2024/03/02 12:00:27;;;;;;;7.68;5.20;;;17.40;76.40;;;;;;5112462;28;20143;-68
2024/03/02 12:03:08;;;;;;;8.32;6.00;;;17.40;76.10;;;;;;5111169;28;20028;-68
2024/03/02 12:05:34;;;;;;;8.40;6.22;;;17.40;77.40;;;;;;5113074;28;20095;-68
2024/03/02 12:08:02;;;;;;;8.77;5.78;;;17.60;77.00;;;;;;5112374;27;20139;-68
2024/03/02 12:10:28;;;;;;;13.50;8.02;;;17.70;78.30;;;;;;5112463;28;20016;-68
2024/03/02 12:12:56;;;;;;;11.95;6.90;;;17.50;78.30;;;;;;5112286;28;20023;-68
2024/03/02 12:15:33;;;;;;;10.98;7.80;;;17.30;79.40;;;;;;5112121;28;20087;-68
2024/03/02 12:18:00;;;;;;;11.13;8.20;;;17.10;80.10;;;;;;5111804;28;20011;-68
2024/03/02 12:20:29;;;;;;;15.05;9.43;;;16.90;82.80;;;;;;5110953;28;20024;-68
2024/03/02 12:22:55;;;;;;;13.07;8.15;;;16.90;82.20;;;;;;5111846;28;20020;-68
2024/03/02 12:25:22;;;;;;;12.98;8.40;;;16.90;83.20;;;;;;5111974;28;20065;-68
2024/03/02 12:27:50;;;;;;;14.80;8.95;;;16.80;85.00;;;;;;5111888;28;20080;-68
2024/03/02 12:30:19;;;;;;;12.68;8.05;;;16.60;84.30;;;;;;5112018;27;20020;-68
2024/03/02 12:32:45;;;;;;;9.60;6.88;;;16.50;85.70;;;;;;5110330;28;20019;-68
2024/03/02 12:35:14;;;;;;;12.77;7.28;;;16.20;84.00;;;;;;5111885;27;20104;-68
2024/03/02 12:37:50;;;;;;;7.80;5.03;;;16.10;83.10;;;;;;5111534;27;20020;-68
2024/03/02 12:40:18;;;;;;;10.10;6.35;;;15.90;84.80;;;;;;5109492;28;20488;-68
2024/03/02 12:42:48;;;;;;;12.70;6.18;;;15.80;84.40;;;;;;5111661;28;20043;-68